Time;durP1;ratioP1;P1;durP2;ratioP2;P2;SDS_P1;SDS_P2;PMS_P1;PMS_P2;Temp;Humidity;BMP_temperature;BMP_pressure;BME280_temperature;BME280_humidity;BME280_pressure;Samples;Min_cycle;Max_cycle;Signal;HPM_P1;HPM_P2
2022/06/13 00:00:46;;;;;;;;;5.33;3.33;;;;;19.84;54.70;102062.56;5054087;28;67849;-70
2022/06/13 00:03:11;;;;;;;;;4.67;1.33;;;;;19.80;55.41;102061.69;5051395;28;58255;-69
2022/06/13 00:05:36;;;;;;;;;2.67;1.33;;;;;19.77;55.22;102064.44;5056057;28;47750;-69
2022/06/13 00:08:02;;;;;;;;;3.67;1.33;;;;;19.75;55.94;102068.88;5055789;28;55437;-70
2022/06/13 00:10:27;;;;;;;;;3.00;3.00;;;;;19.73;55.94;102070.69;5055675;28;47014;-69
2022/06/13 00:12:52;;;;;;;;;4.00;1.33;;;;;19.71;56.31;102071.59;5054851;28;58360;-69
2022/06/13 00:15:18;;;;;;;;;4.67;1.67;;;;;19.66;56.42;102060.94;5055522;28;55052;-69
2022/06/13 00:17:43;;;;;;;;;1.67;1.67;;;;;19.64;56.67;102068.06;5051370;28;45388;-70
2022/06/13 00:20:10;;;;;;;;;2.33;2.00;;;;;19.63;56.95;102066.31;5055607;28;45890;-70
2022/06/13 00:22:36;;;;;;;;;1.33;1.33;;;;;19.64;57.23;102065.41;5055392;28;45321;-70
2022/06/13 00:25:01;;;;;;;;;2.00;2.00;;;;;19.61;57.53;102063.63;5054733;28;55290;-70
2022/06/13 00:27:26;;;;;;;;;3.00;2.00;;;;;19.61;57.80;102062.75;5054901;28;45565;-70
2022/06/13 00:29:52;;;;;;;;;1.67;1.67;;;;;19.57;58.03;102060.94;5054820;28;63179;-70
2022/06/13 00:32:17;;;;;;;;;1.33;1.33;;;;;19.52;58.33;102062.78;5054316;28;61271;-69
2022/06/13 00:34:43;;;;;;;;;3.67;2.33;;;;;19.48;58.33;102066.34;5055535;28;45580;-69
2022/06/13 00:37:09;;;;;;;;;4.00;1.00;;;;;19.45;58.97;102061.03;5055812;28;45191;-70
2022/06/13 00:39:35;;;;;;;;;2.67;2.33;;;;;19.44;58.81;102062.84;5055031;28;61778;-70
2022/06/13 00:42:01;;;;;;;;;4.67;2.00;;;;;19.39;59.16;102059.28;5054645;28;66032;-69
2022/06/13 00:44:32;;;;;;;;;3.67;1.33;;;;;19.34;59.15;102051.28;5056079;28;45603;-70
2022/06/13 00:46:57;;;;;;;;;4.33;2.00;;;;;19.30;59.78;102054.88;5058989;28;45550;-69
2022/06/13 00:49:25;;;;;;;;;9.00;3.00;;;;;19.28;60.20;102054.00;5058226;28;62571;-70
2022/06/13 00:52:14;;;;;;;;;1.33;1.33;;;;;19.26;60.38;102053.09;5057334;28;46425;-69
2022/06/13 00:54:41;;;;;;;;;3.00;3.00;;;;;19.21;60.95;102041.50;5058742;28;45304;-69
2022/06/13 00:57:13;;;;;;;;;5.00;2.67;;;;;19.19;61.05;102037.97;5059145;28;45426;-69
2022/06/13 00:59:39;;;;;;;;;3.00;3.00;;;;;19.16;61.26;102046.00;5057405;28;46494;-69
2022/06/13 01:02:05;;;;;;;;;2.67;1.33;;;;;19.14;61.77;102039.78;5057410;28;45324;-69
2022/06/13 01:04:31;;;;;;;;;3.00;2.00;;;;;19.11;61.91;102042.47;5057963;28;45536;-70
2022/06/13 01:06:57;;;;;;;;;6.67;2.67;;;;;19.08;62.14;102042.50;5058914;28;45269;-69
2022/06/13 01:11:16;;;;;;;;;2.00;2.00;;;;;19.05;62.51;102045.16;5058117;28;45554;-69
2022/06/13 01:12:09;;;;;;;;;3.67;3.67;;;;;19.02;62.88;102031.81;5051474;28;45613;-70
2022/06/13 01:14:48;;;;;;;;;4.67;3.33;;;;;18.98;63.58;102035.41;5057830;28;45191;-70
2022/06/13 01:17:31;;;;;;;;;4.00;3.00;;;;;18.94;63.82;102042.53;5058876;28;45401;-70
2022/06/13 01:20:15;;;;;;;;;3.00;3.00;;;;;18.89;64.12;102033.63;5056963;28;46553;-70
2022/06/13 01:23:16;;;;;;;;;5.33;3.00;;;;;18.84;64.49;102025.63;5058161;28;45555;-69
2022/06/13 01:26:09;;;;;;;;;4.33;3.33;;;;;18.82;65.17;102029.22;5056357;28;45607;-70
2022/06/13 01:28:51;;;;;;;;;6.33;4.00;;;;;18.78;66.26;102022.09;5057015;28;45326;-70
2022/06/13 01:31:24;;;;;;;;;3.33;2.00;;;;;18.71;66.22;102021.22;5052349;28;46449;-69
2022/06/13 01:34:21;;;;;;;;;4.00;3.00;;;;;18.69;66.36;102020.31;5058168;28;45555;-69
2022/06/13 01:37:06;;;;;;;;;6.67;3.00;;;;;18.69;66.95;102017.66;5057599;28;45268;-69
2022/06/13 01:39:56;;;;;;;;;6.67;3.33;;;;;18.69;66.99;102023.00;5047515;28;45714;-69
2022/06/13 01:42:37;;;;;;;;;6.00;4.00;;;;;18.69;67.40;102025.69;5056487;28;46679;-70
2022/06/13 01:45:32;;;;;;;;;5.00;4.00;;;;;18.67;67.71;102026.56;5053730;28;45497;-70
2022/06/13 01:48:13;;;;;;;;;6.33;3.67;;;;;18.65;68.15;102033.72;5057108;28;45562;-70
2022/06/13 01:51:09;;;;;;;;;8.00;5.00;;;;;18.62;68.59;102044.41;5057897;28;45477;-69
2022/06/13 01:53:34;;;;;;;;;7.67;3.67;;;;;18.61;69.22;102038.16;5056931;28;45692;-69
2022/06/13 01:56:05;;;;;;;;;10.67;4.67;;;;;18.58;69.81;102033.69;5057321;28;45185;-70
2022/06/13 01:58:59;;;;;;;;;8.33;4.67;;;;;18.56;69.74;102031.94;5056878;28;45314;-70
2022/06/13 02:01:43;;;;;;;;;6.00;4.00;;;;;18.53;70.41;102032.81;5052622;28;45239;-69
2022/06/13 02:04:14;;;;;;;;;4.67;4.67;;;;;18.53;71.33;102037.28;5050227;28;47616;-70
2022/06/13 02:06:43;;;;;;;;;7.33;6.00;;;;;18.52;71.42;102035.50;5057551;28;45523;-70
2022/06/13 02:09:16;;;;;;;;;5.00;5.00;;;;;18.51;72.25;102041.75;5048800;28;45341;-69
2022/06/13 02:11:46;;;;;;;;;4.67;4.67;;;;;18.49;71.69;102036.44;5056327;28;45430;-69
2022/06/13 02:14:18;;;;;;;;;10.00;5.00;;;;;18.48;71.87;102034.66;5049825;28;46821;-69
2022/06/13 02:17:08;;;;;;;;;7.67;6.00;;;;;18.49;72.18;102035.53;5057113;28;45473;-70
2022/06/13 02:19:37;;;;;;;;;9.67;5.00;;;;;18.48;72.94;102036.41;5057390;28;45417;-69
2022/06/13 02:22:16;;;;;;;;;5.00;5.00;;;;;18.45;73.00;102031.97;5055928;28;45724;-70
2022/06/13 02:24:51;;;;;;;;;4.33;4.00;;;;;18.42;73.46;102023.94;5057108;28;45947;-69
2022/06/13 02:27:18;;;;;;;;;4.00;4.00;;;;;18.40;73.89;102023.06;5055726;28;45276;-69
2022/06/13 02:29:49;;;;;;;;;7.00;4.00;;;;;18.37;73.86;102020.38;5057507;28;45419;-69
2022/06/13 02:32:21;;;;;;;;;5.67;5.00;;;;;18.35;74.24;102022.19;5055626;28;45590;-69
2022/06/13 02:34:57;;;;;;;;;7.00;5.33;;;;;18.36;74.62;102031.09;5056464;28;45394;-69
2022/06/13 02:37:33;;;;;;;;;8.00;4.00;;;;;18.35;74.72;102032.00;5056274;28;45559;-69
2022/06/13 02:40:05;;;;;;;;;6.33;4.33;;;;;18.33;75.93;102027.53;5068358;28;45343;-70
2022/06/13 02:42:52;;;;;;;;;7.33;6.00;;;;;18.29;75.75;102032.91;5044034;28;45557;-70
2022/06/13 02:45:22;;;;;;;;;8.33;4.00;;;;;18.23;76.05;102025.78;5050964;28;46802;-69
2022/06/13 02:48:00;;;;;;;;;7.67;5.00;;;;;18.22;76.04;102032.03;5056750;28;45590;-69
2022/06/13 02:50:42;;;;;;;;;6.33;4.00;;;;;18.21;75.74;102032.00;5057436;28;45300;-69
2022/06/13 02:53:12;;;;;;;;;10.33;4.00;;;;;18.20;75.55;102027.56;5055756;28;45562;-70
2022/06/13 02:55:42;;;;;;;;;5.33;4.33;;;;;18.18;76.24;102018.66;5055493;28;48136;-69
2022/06/13 02:58:31;;;;;;;;;5.67;4.00;;;;;18.17;76.22;102025.78;5057187;27;45283;-70
2022/06/13 03:01:02;;;;;;;;;6.67;5.00;;;;;18.16;76.52;102026.66;5056817;28;45229;-69
2022/06/13 03:03:38;;;;;;;;;7.00;4.00;;;;;18.13;76.58;102025.78;5056777;28;45426;-70
2022/06/13 03:06:17;;;;;;;;;4.67;4.33;;;;;18.08;76.91;102031.13;5055050;28;47403;-69
2022/06/13 03:09:11;;;;;;;;;5.00;5.00;;;;;18.07;76.73;102037.38;5055091;28;45574;-70
2022/06/13 03:11:39;;;;;;;;;6.67;4.00;;;;;18.04;77.06;102037.38;5053552;28;45339;-69
2022/06/13 03:14:08;;;;;;;;;6.00;5.00;;;;;18.04;77.35;102043.59;5057122;28;45427;-70
2022/06/13 03:16:54;;;;;;;;;6.00;6.00;;;;;18.03;77.76;102044.50;5056423;28;46870;-69
2022/06/13 03:19:42;;;;;;;;;6.00;5.00;;;;;18.03;77.79;102048.97;5054703;28;45870;-69
2022/06/13 03:22:08;;;;;;;;;10.33;5.00;;;;;17.99;77.82;102047.16;5054662;28;45282;-69
2022/06/13 03:25:07;;;;;;;;;9.33;5.00;;;;;17.96;77.97;102047.19;5055614;28;45478;-69
2022/06/13 03:27:35;;;;;;;;;6.67;4.00;;;;;17.91;78.58;102052.53;5050704;28;47753;-70
2022/06/13 03:30:10;;;;;;;;;5.67;5.67;;;;;17.89;78.68;102053.41;5055094;28;45267;-70
2022/06/13 03:32:40;;;;;;;;;9.00;4.00;;;;;17.86;78.88;102058.75;5054580;28;45442;-69
2022/06/13 03:35:10;;;;;;;;;6.33;4.00;;;;;17.85;79.53;102065.88;5056400;28;45475;-69
2022/06/13 03:37:41;;;;;;;;;5.00;5.00;;;;;17.82;79.76;102068.53;5056185;28;45475;-70
2022/06/13 03:40:11;;;;;;;;;10.33;4.33;;;;;17.79;80.04;102069.44;5055238;28;45368;-70
2022/06/13 03:42:42;;;;;;;;;5.00;5.00;;;;;17.79;80.21;102073.91;5055005;28;45479;-69
2022/06/13 03:45:26;;;;;;;;;7.00;5.67;;;;;17.78;80.47;102070.31;5023854;28;45463;-69
2022/06/13 03:47:57;;;;;;;;;6.00;4.00;;;;;17.73;80.72;102072.09;5051200;28;47726;-70
2022/06/13 03:50:38;;;;;;;;;8.33;5.00;;;;;17.71;80.82;102073.84;5054540;28;45420;-69
2022/06/13 03:53:09;;;;;;;;;6.33;5.67;;;;;17.69;81.10;102072.06;5056050;28;45509;-69
2022/06/13 03:55:40;;;;;;;;;6.00;5.00;;;;;17.67;81.36;102069.38;5052666;28;45447;-69
2022/06/13 03:58:11;;;;;;;;;6.00;3.67;;;;;17.68;81.36;102072.94;5054186;28;46312;-69
2022/06/13 04:00:42;;;;;;;;;9.33;5.00;;;;;17.66;82.47;102067.59;5054441;28;45457;-69
2022/06/13 04:03:08;;;;;;;;;8.00;5.00;;;;;17.65;82.15;102068.50;5054370;28;45454;-69
2022/06/13 04:05:56;;;;;;;;;9.00;4.00;;;;;17.65;82.32;102073.84;5056423;28;45288;-69
2022/06/13 04:08:21;;;;;;;;;5.67;4.67;;;;;17.65;82.16;102064.94;5018668;28;46839;-69
2022/06/13 04:11:11;;;;;;;;;6.00;5.00;;;;;17.64;82.60;102066.72;5054535;28;63203;-69
2022/06/13 04:13:50;;;;;;;;;3.67;3.00;;;;;17.62;82.85;102068.47;5055098;28;45660;-69
2022/06/13 04:16:23;;;;;;;;;8.33;6.00;;;;;17.64;83.20;102069.41;5055695;28;45315;-70
2022/06/13 04:19:19;;;;;;;;;7.67;4.00;;;;;17.62;82.75;102073.81;5049342;28;46635;-69
2022/06/13 04:21:57;;;;;;;;;6.67;5.67;;;;;17.62;83.21;102072.94;5052049;28;45306;-69
2022/06/13 04:24:39;;;;;;;;;8.00;5.33;;;;;17.59;83.38;102070.28;5054832;28;45421;-70
2022/06/13 04:27:21;;;;;;;;;9.00;5.33;;;;;17.57;84.01;102066.69;5053884;28;45423;-69
2022/06/13 04:29:52;;;;;;;;;5.33;4.00;;;;;17.57;83.99;102072.03;5054615;28;45442;-69
2022/06/13 04:32:22;;;;;;;;;6.33;4.67;;;;;17.56;83.97;102076.47;5054708;28;47166;-69
2022/06/13 04:34:50;;;;;;;;;5.67;5.00;;;;;17.56;84.72;102076.47;5054953;28;45425;-69
2022/06/13 04:37:16;;;;;;;;;10.33;6.00;;;;;17.55;84.41;102074.72;5054589;28;45306;-70
2022/06/13 04:39:43;;;;;;;;;10.67;5.67;;;;;17.54;85.05;102078.28;5054202;28;46743;-70
2022/06/13 04:42:09;;;;;;;;;6.00;5.67;;;;;17.51;85.65;102075.59;5055220;28;45310;-69
2022/06/13 04:44:36;;;;;;;;;7.33;4.33;;;;;17.50;85.92;102076.47;5053964;28;45309;-69
2022/06/13 04:47:04;;;;;;;;;7.00;5.00;;;;;17.48;85.99;102078.25;5054177;28;45557;-69
2022/06/13 04:49:34;;;;;;;;;9.67;6.00;;;;;17.46;86.22;102075.56;5054090;28;45605;-69
2022/06/13 04:52:04;;;;;;;;;4.33;4.00;;;;;17.45;86.84;102079.13;5054615;28;45522;-69
2022/06/13 04:54:33;;;;;;;;;9.00;6.00;;;;;17.43;86.96;102091.59;5055231;28;45399;-70
2022/06/13 04:56:59;;;;;;;;;7.33;5.00;;;;;17.43;87.92;102085.38;5055510;28;45829;-69
2022/06/13 04:59:25;;;;;;;;;6.00;4.33;;;;;17.39;88.65;102087.13;5053735;28;47313;-69
2022/06/13 05:01:50;;;;;;;;;7.00;6.00;;;;;17.40;87.74;102096.03;5053181;28;45369;-69
2022/06/13 05:04:20;;;;;;;;;6.00;5.67;;;;;17.41;88.16;102100.47;5055459;28;45445;-69
2022/06/13 05:07:22;;;;;;;;;5.00;5.00;;;;;17.41;88.83;102095.13;5054359;28;45549;-70
2022/06/13 05:10:02;;;;;;;;;7.33;7.00;;;;;17.41;88.83;102098.69;5022156;28;48005;-70
2022/06/13 05:12:42;;;;;;;;;9.67;5.33;;;;;17.42;88.87;102100.50;5052826;28;45560;-70
2022/06/13 05:15:15;;;;;;;;;6.00;5.00;;;;;17.42;89.23;102097.84;5053636;28;45480;-70
2022/06/13 05:18:42;;;;;;;;;6.00;6.00;;;;;17.46;89.10;102101.38;5051927;28;45289;-70
2022/06/13 05:21:25;;;;;;;;;8.67;5.00;;;;;17.47;89.81;102104.09;5028016;28;46562;-70
2022/06/13 05:24:16;;;;;;;;;9.67;6.67;;;;;17.46;89.16;102104.06;5042537;28;45538;-70
2022/06/13 05:26:41;;;;;;;;;9.33;6.67;;;;;17.46;89.75;102102.28;5031236;28;45427;-70
2022/06/13 05:29:09;;;;;;;;;13.00;7.00;;;;;17.46;90.15;102106.72;5052527;28;65495;-70
2022/06/13 05:31:35;;;;;;;;;5.67;5.00;;;;;17.43;90.66;102106.72;5054433;28;45212;-70
2022/06/13 05:34:01;;;;;;;;;6.67;6.67;;;;;17.38;90.67;102104.03;5054918;28;56593;-69
2022/06/13 05:36:27;;;;;;;;;9.33;7.00;;;;;17.39;90.74;102111.16;5055991;28;64037;-69
2022/06/13 05:38:59;;;;;;;;;7.67;6.00;;;;;17.42;90.68;102108.50;5056111;28;63316;-70
2022/06/13 05:41:24;;;;;;;;;12.00;5.67;;;;;17.44;91.26;102108.50;5057043;28;47635;-69
2022/06/13 05:43:49;;;;;;;;;7.67;6.67;;;;;17.48;91.43;102118.31;5055783;28;45560;-70
2022/06/13 05:46:27;;;;;;;;;9.33;6.00;;;;;17.51;92.07;102112.97;5056330;28;45617;-71
2022/06/13 05:48:52;;;;;;;;;7.67;6.00;;;;;17.42;96.04;102121.88;5056336;28;45476;-73
2022/06/13 05:51:18;;;;;;;;;11.33;7.00;;;;;17.28;97.91;102119.13;5055914;28;46558;-74
2022/06/13 05:53:43;;;;;;;;;9.33;8.00;;;;;17.17;98.02;102119.97;5057576;28;56377;-73
2022/06/13 05:56:10;;;;;;;;;14.00;6.00;;;;;17.12;97.91;102119.94;5056361;28;45497;-72
2022/06/13 05:58:36;;;;;;;;;8.67;5.33;;;;;17.07;99.73;102129.72;5055560;28;45641;-73
2022/06/13 06:01:02;;;;;;;;;13.67;7.67;;;;;17.01;100.00;102124.34;5053129;28;46804;-73
2022/06/13 06:03:28;;;;;;;;;10.67;7.00;;;;;16.99;100.00;102126.09;5054565;28;45478;-74
2022/06/13 06:05:54;;;;;;;;;10.33;8.00;;;;;16.97;100.00;102126.09;5055899;28;45445;-73
2022/06/13 06:08:22;;;;;;;;;7.67;5.67;;;;;16.94;100.00;102134.09;5056607;28;45300;-73
2022/06/13 06:10:50;;;;;;;;;8.00;6.00;;;;;16.91;100.00;102134.06;5055534;28;46581;-73
2022/06/13 06:13:15;;;;;;;;;9.00;6.00;;;;;16.89;100.00;102140.31;5055295;28;45451;-72
2022/06/13 06:15:42;;;;;;;;;9.00;6.33;;;;;16.86;100.00;102133.16;5056310;28;45446;-73
2022/06/13 06:18:08;;;;;;;;;10.67;7.00;;;;;16.85;100.00;102127.81;5056546;28;45272;-73
2022/06/13 06:20:34;;;;;;;;;9.67;6.67;;;;;16.89;100.00;102132.28;5052409;28;46596;-74
2022/06/13 06:23:00;;;;;;;;;7.67;7.33;;;;;16.93;100.00;102144.75;5054011;28;45775;-74
2022/06/13 06:25:25;;;;;;;;;9.67;7.00;;;;;16.95;100.00;102146.56;5054447;28;45746;-74
2022/06/13 06:27:51;;;;;;;;;12.00;8.00;;;;;16.97;100.00;102138.56;5050051;28;54868;-74
2022/06/13 06:30:17;;;;;;;;;11.00;8.00;;;;;17.02;100.00;102139.47;5053761;28;47238;-74
2022/06/13 06:32:43;;;;;;;;;12.67;9.00;;;;;17.00;100.00;102142.13;5055719;28;45434;-74
2022/06/13 06:35:09;;;;;;;;;8.33;8.00;;;;;17.05;100.00;102146.63;5054347;28;46048;-73
2022/06/13 06:37:38;;;;;;;;;12.00;7.33;;;;;17.07;100.00;102150.16;5056579;28;45621;-73
2022/06/13 06:40:04;;;;;;;;;15.33;8.00;;;;;17.08;100.00;102151.94;5056563;28;46904;-73
2022/06/13 06:42:30;;;;;;;;;13.00;7.33;;;;;17.13;100.00;102153.75;5054837;28;45367;-73
2022/06/13 06:44:55;;;;;;;;;9.00;7.33;;;;;17.18;100.00;102156.44;5053465;28;50219;-72
2022/06/13 06:47:20;;;;;;;;;7.67;6.67;;;;;17.21;100.00;102159.16;5052186;28;58412;-74
2022/06/13 06:49:47;;;;;;;;;10.00;8.00;;;;;17.26;100.00;102160.97;5047368;28;64116;-73
2022/06/13 06:52:12;;;;;;;;;9.33;6.33;;;;;17.31;100.00;102155.66;5055268;28;45403;-73
2022/06/13 07:00:07;;;;;;;;;12.67;7.33;;;;;17.60;100.00;102157.53;5050541;28;45785;-73
2022/06/13 07:02:33;;;;;;;;;10.33;7.67;;;;;17.65;100.00;102161.09;5054496;28;45570;-73
2022/06/13 07:05:00;;;;;;;;;17.33;7.33;;;;;17.69;100.00;102161.13;5054991;28;45607;-73
2022/06/13 07:07:26;;;;;;;;;9.00;6.33;;;;;17.76;100.00;102164.72;5056751;28;45606;-74
2022/06/13 07:09:51;;;;;;;;;12.00;8.00;;;;;17.85;100.00;102169.22;5056161;28;46879;-73
2022/06/13 07:12:17;;;;;;;;;7.00;7.00;;;;;17.90;100.00;102160.31;5055428;28;45408;-74
2022/06/13 07:14:42;;;;;;;;;9.00;4.67;;;;;17.91;100.00;102155.84;5054986;28;45490;-73
2022/06/13 07:17:08;;;;;;;;;8.00;6.33;;;;;17.95;100.00;102157.63;5057200;28;45479;-74
2022/06/13 07:19:35;;;;;;;;;10.00;7.00;;;;;17.99;100.00;102154.97;5054587;28;45976;-73
2022/06/13 07:22:01;;;;;;;;;10.00;5.00;;;;;18.06;100.00;102159.44;5054345;28;45468;-73
2022/06/13 07:24:28;;;;;;;;;11.00;6.00;;;;;18.14;99.46;102162.13;5056888;28;45445;-73
2022/06/13 07:26:54;;;;;;;;;5.00;5.00;;;;;18.22;99.39;102159.47;5055346;28;45234;-73
2022/06/13 07:29:19;;;;;;;;;9.33;7.00;;;;;18.30;98.31;102166.59;5055451;28;46579;-73
2022/06/13 07:31:49;;;;;;;;;6.00;6.00;;;;;18.34;97.26;102154.13;5055789;28;45471;-72
2022/06/13 07:34:17;;;;;;;;;4.00;3.00;;;;;18.37;96.28;102170.13;5054811;28;45530;-74
2022/06/13 07:36:43;;;;;;;;;7.00;5.00;;;;;18.39;95.52;102162.16;5056218;28;45565;-73
2022/06/13 07:39:08;;;;;;;;;10.67;6.00;;;;;18.42;95.92;102162.13;5056155;28;45580;-73
2022/06/13 07:41:36;;;;;;;;;9.33;5.67;;;;;18.49;94.75;102161.25;5056270;28;45458;-73
2022/06/13 07:44:02;;;;;;;;;7.67;5.33;;;;;18.50;94.76;102163.91;5056748;28;45362;-72
2022/06/13 07:46:29;;;;;;;;;5.67;4.67;;;;;18.56;94.99;102163.91;5054614;28;45399;-74
2022/06/13 07:48:54;;;;;;;;;5.67;4.00;;;;;18.62;94.22;102157.66;5054389;28;47549;-74
2022/06/13 07:51:21;;;;;;;;;6.00;4.00;;;;;18.69;94.43;102162.13;5055600;28;45421;-74
2022/06/13 07:53:47;;;;;;;;;6.00;3.33;;;;;18.77;94.89;102164.81;5054260;28;45198;-74
2022/06/13 07:56:16;;;;;;;;;6.00;4.33;;;;;18.81;92.98;102158.56;5053835;28;45229;-72
2022/06/13 07:58:43;;;;;;;;;8.00;5.33;;;;;18.83;92.44;102164.81;5055902;28;46299;-74
2022/06/13 08:01:10;;;;;;;;;4.67;4.67;;;;;18.89;90.53;102171.91;5055252;28;45255;-74
2022/06/13 08:03:35;;;;;;;;;5.67;4.33;;;;;18.94;90.77;102175.47;5055774;28;45358;-73
2022/06/13 08:06:02;;;;;;;;;4.00;3.00;;;;;19.02;90.30;102176.38;5053703;28;45550;-72
2022/06/13 08:08:28;;;;;;;;;4.33;2.33;;;;;19.10;89.46;102177.22;5053374;28;46728;-73
2022/06/13 08:10:55;;;;;;;;;6.00;3.67;;;;;19.16;89.88;102179.88;5055585;28;45526;-74
2022/06/13 08:13:21;;;;;;;;;5.67;2.67;;;;;19.25;89.34;102174.50;5054101;28;45460;-74
2022/06/13 08:15:47;;;;;;;;;2.33;2.33;;;;;19.32;89.12;102168.22;5055090;28;45435;-75
2022/06/13 08:18:14;;;;;;;;;11.67;3.67;;;;;19.36;89.75;102172.69;5053402;28;45858;-75
2022/06/13 08:20:40;;;;;;;;;3.33;3.33;;;;;19.35;85.89;102165.53;5053278;28;65691;-74
2022/06/13 08:23:11;;;;;;;;;5.33;3.00;;;;;19.38;87.58;102169.97;5054344;28;45474;-73
2022/06/13 08:25:37;;;;;;;;;5.33;3.00;;;;;19.43;88.35;102164.59;5056040;28;45474;-75
2022/06/13 08:28:03;;;;;;;;;5.00;3.67;;;;;19.47;87.66;102167.28;5050594;28;45693;-74
2022/06/13 08:30:56;;;;;;;;;3.00;2.67;;;;;19.51;85.50;102166.38;5057596;28;45493;-73
2022/06/13 08:33:22;;;;;;;;;6.00;4.00;;;;;19.52;85.07;102169.94;5050764;28;45509;-74
2022/06/13 08:35:48;;;;;;;;;4.67;2.00;;;;;19.56;86.09;102177.97;5054985;28;45587;-75
2022/06/13 08:38:14;;;;;;;;;2.00;2.00;;;;;19.59;83.61;102169.91;5049150;28;46524;-74
2022/06/13 08:40:52;;;;;;;;;4.67;3.00;;;;;19.66;84.71;102177.94;5054566;28;62510;-74
2022/06/13 08:43:36;;;;;;;;;3.00;3.00;;;;;19.71;86.18;102174.34;5054534;28;45494;-74
2022/06/13 08:46:10;;;;;;;;;2.00;2.00;;;;;19.76;84.42;102172.53;5055430;28;45284;-74
2022/06/13 08:48:46;;;;;;;;;4.67;3.00;;;;;19.80;82.05;102168.03;5052416;28;46096;-75
2022/06/13 08:51:22;;;;;;;;;5.00;2.00;;;;;19.81;80.20;102170.69;5054969;28;45453;-75
2022/06/13 08:53:59;;;;;;;;;2.67;2.67;;;;;19.82;82.01;102166.25;5037055;28;45428;-73
2022/06/13 08:56:28;;;;;;;;;5.33;2.67;;;;;19.85;79.89;102169.78;5055077;28;45533;-74
2022/06/13 08:59:22;;;;;;;;;6.67;3.00;;;;;19.86;78.70;102170.66;5054017;28;46743;-74
2022/06/13 09:01:50;;;;;;;;;5.33;2.67;;;;;19.86;80.24;102166.19;5047719;28;45457;-74
2022/06/13 09:04:22;;;;;;;;;5.00;3.00;;;;;19.91;79.54;102165.28;5054835;28;45349;-74
2022/06/13 09:06:53;;;;;;;;;2.67;2.67;;;;;19.96;79.72;102168.81;5054770;28;45506;-74
2022/06/13 09:09:28;;;;;;;;;3.00;2.00;;;;;20.00;77.13;102165.22;5055682;28;46606;-74
2022/06/13 09:12:02;;;;;;;;;6.00;2.00;;;;;20.05;76.00;102168.78;5052072;28;45376;-74
2022/06/13 09:14:33;;;;;;;;;5.00;2.00;;;;;20.12;76.88;102167.81;5059161;28;45252;-74
2022/06/13 09:17:21;;;;;;;;;3.00;3.00;;;;;20.20;78.51;102167.78;5056045;28;45600;-73
2022/06/13 09:19:49;;;;;;;;;5.00;3.67;;;;;20.25;76.27;102169.53;5053422;28;45986;-73
2022/06/13 09:22:32;;;;;;;;;2.00;2.00;;;;;20.28;76.29;102166.78;5057797;28;45296;-74
2022/06/13 09:25:16;;;;;;;;;6.33;2.00;;;;;20.28;74.26;102164.13;5056025;28;45443;-74
2022/06/13 09:27:48;;;;;;;;;6.00;4.00;;;;;20.26;73.25;102170.41;5177936;22;45555;-75
2022/06/13 09:30:20;;;;;;;;;4.67;3.00;;;;;20.29;73.90;102165.88;5057078;28;46537;-74
2022/06/13 09:32:53;;;;;;;;;3.00;2.00;;;;;20.39;73.40;102167.59;5053120;28;45471;-73
2022/06/13 09:35:22;;;;;;;;;2.00;2.00;;;;;20.50;72.20;102172.91;5056780;28;45534;-74
2022/06/13 09:37:58;;;;;;;;;3.33;2.00;;;;;20.57;72.11;102166.59;5058276;28;45554;-74
2022/06/13 09:40:36;;;;;;;;;4.00;2.67;;;;;20.60;73.96;102161.19;5072877;28;46195;-74
2022/06/13 09:43:33;;;;;;;;;2.00;2.00;;;;;20.69;70.53;102159.34;5056671;28;45324;-74
2022/06/13 09:46:04;;;;;;;;;4.67;1.00;;;;;20.74;70.60;102165.56;5056770;28;45333;-74
2022/06/13 09:48:37;;;;;;;;;2.00;2.00;;;;;20.77;69.38;102166.38;5057680;28;45493;-75
2022/06/13 09:51:32;;;;;;;;;3.00;2.00;;;;;20.82;69.77;102171.72;5056689;28;45897;-74
2022/06/13 09:54:19;;;;;;;;;2.67;2.00;;;;;20.87;67.42;102176.13;5055485;28;45220;-73
2022/06/13 09:57:00;;;;;;;;;2.67;2.00;;;;;20.91;64.24;102169.84;5073533;28;45434;-75
2022/06/13 09:59:57;;;;;;;;;4.00;1.67;;;;;20.91;65.42;102167.16;5056170;28;45478;-74
2022/06/13 10:02:36;;;;;;;;;7.33;2.00;;;;;20.96;65.37;102167.09;5056098;28;45744;-75
2022/06/13 10:05:12;;;;;;;;;3.67;2.33;;;;;20.99;65.62;102160.81;5055780;28;45489;-75
2022/06/13 10:07:46;;;;;;;;;3.00;2.00;;;;;21.00;64.78;102147.38;5056637;28;46882;-74
2022/06/13 10:10:22;;;;;;;;;4.00;2.33;;;;;21.03;64.88;102151.81;5058036;28;45410;-74
2022/06/13 10:13:46;;;;;;;;;3.33;2.00;;;;;21.05;63.91;102150.00;5057636;28;45673;-75
2022/06/13 10:16:20;;;;;;;;;3.00;3.00;;;;;21.09;64.30;102159.78;4961816;28;46137;-74
2022/06/13 10:19:11;;;;;;;;;1.33;1.33;;;;;21.13;64.19;102162.41;4995329;28;45487;-74
2022/06/13 10:21:43;;;;;;;;;5.67;2.00;;;;;21.17;64.49;102155.22;5023215;28;45547;-73
2022/06/13 10:24:27;;;;;;;;;3.33;3.00;;;;;21.24;64.15;102156.91;5055361;28;46367;-74
2022/06/13 10:27:25;;;;;;;;;3.00;3.00;;;;;21.32;63.61;102170.31;5057463;28;46349;-73
2022/06/13 10:29:53;;;;;;;;;4.33;2.00;;;;;21.41;64.81;102156.75;5054814;28;45453;-73
2022/06/13 10:32:19;;;;;;;;;3.67;2.00;;;;;21.48;63.76;102161.16;5056447;28;45318;-74
2022/06/13 10:35:09;;;;;;;;;4.00;2.00;;;;;21.51;62.60;102157.53;5057150;28;46380;-75
2022/06/13 10:38:01;;;;;;;;;4.67;2.33;;;;;21.60;64.73;102152.03;5056085;28;45363;-74
2022/06/13 10:40:28;;;;;;;;;3.00;3.00;;;;;21.74;65.51;102149.16;5052605;28;45469;-76
2022/06/13 10:42:53;;;;;;;;;2.00;2.00;;;;;21.84;65.99;102143.63;5055395;28;51870;-74
2022/06/13 10:45:19;;;;;;;;;2.00;2.00;;;;;21.97;65.63;102153.28;5057737;28;45622;-74
2022/06/13 10:47:58;;;;;;;;;2.00;2.00;;;;;22.11;64.51;102155.78;5055566;28;45557;-75
2022/06/13 10:50:45;;;;;;;;;3.00;2.00;;;;;22.22;62.51;102147.56;5057205;28;45335;-75
2022/06/13 10:53:35;;;;;;;;;4.67;3.00;;;;;22.29;63.15;102142.94;5052961;28;45559;-74
2022/06/13 10:56:03;;;;;;;;;4.00;2.33;;;;;22.31;62.65;102143.81;5043671;28;47841;-74
2022/06/13 10:58:35;;;;;;;;;2.33;2.00;;;;;22.32;62.14;102138.41;5055564;28;45436;-73
2022/06/13 11:01:04;;;;;;;;;3.00;2.00;;;;;22.39;61.05;102140.06;5057033;28;45355;-75
2022/06/13 11:03:29;;;;;;;;;2.00;2.00;;;;;22.45;61.23;102141.78;5057277;28;45681;-76
2022/06/13 11:05:55;;;;;;;;;4.00;2.33;;;;;22.57;61.77;102148.72;5056604;28;47031;-76
2022/06/13 11:08:21;;;;;;;;;3.33;3.33;;;;;22.65;61.04;102145.00;5056811;28;45446;-75
2022/06/13 11:11:01;;;;;;;;;4.67;2.00;;;;;22.73;60.83;102137.66;5055016;28;45411;-75
2022/06/13 11:13:30;;;;;;;;;5.33;3.67;;;;;22.79;60.19;102142.03;5051437;28;45297;-75
2022/06/13 11:24:39;;;;;;;;;5.67;3.00;;;;;22.88;58.03;102127.56;5052465;28;45703;-75
2022/06/13 11:30:29;;;;;;;;;4.00;3.00;;;;;23.05;58.86;102128.09;5053663;28;45543;-74
2022/06/13 11:33:01;;;;;;;;;4.00;3.00;;;;;23.18;58.76;102124.25;5054002;28;45468;-74
2022/06/13 11:35:40;;;;;;;;;3.00;1.00;;;;;23.32;59.26;102123.94;5056402;28;45458;-75
2022/06/13 11:38:19;;;;;;;;;5.00;3.00;;;;;23.37;58.95;102116.63;5054826;28;45377;-75
2022/06/13 11:40:47;;;;;;;;;3.33;2.67;;;;;23.44;57.45;102120.09;5050695;28;45435;-74
2022/06/13 11:43:23;;;;;;;;;3.33;3.33;;;;;23.55;58.63;102122.56;5054318;28;45363;-74
2022/06/13 11:45:55;;;;;;;;;4.00;2.00;;;;;23.67;59.15;102120.50;5054717;28;45553;-75
2022/06/13 11:48:20;;;;;;;;;6.00;2.67;;;;;23.78;56.54;102118.44;5055753;28;46401;-75
2022/06/13 11:50:45;;;;;;;;;4.33;2.33;;;;;23.85;55.23;102121.88;5055577;28;59724;-76
2022/06/13 11:55:58;;;;;;;;;3.00;2.33;;;;;24.03;53.31;102118.75;5050921;28;45508;-75
2022/06/13 11:58:37;;;;;;;;;2.00;2.00;;;;;24.10;52.07;102107.78;5050855;28;45796;-76
2022/06/13 12:01:21;;;;;;;;;2.67;2.67;;;;;24.18;53.22;102101.28;5054961;28;45425;-74
2022/06/13 12:04:11;;;;;;;;;2.67;2.67;;;;;24.34;54.57;102119.78;5055577;28;45545;-73
2022/06/13 12:07:02;;;;;;;;;2.67;2.00;;;;;24.46;54.58;102101.50;5050367;28;45506;-74
2022/06/13 12:09:33;;;;;;;;;4.00;3.00;;;;;24.63;53.60;102097.44;5035850;28;48978;-74
2022/06/13 12:12:00;;;;;;;;;3.00;3.00;;;;;24.81;52.55;102102.31;5054067;28;45578;-73